Time;durP1;ratioP1;P1;durP2;ratioP2;P2;SDS_P1;SDS_P2;PMS_P1;PMS_P2;Temp;Humidity;BMP_temperature;BMP_pressure;BME280_temperature;BME280_humidity;BME280_pressure;Samples;Min_cycle;Max_cycle;Signal;HPM_P1;HPM_P2
2022/05/29 00:00:55;;;;;;;3.47;1.37;;;;;;;17.76;37.20;99394.94;4442972;32;34169;-61
2022/05/29 00:03:23;;;;;;;3.05;1.25;;;;;;;17.69;37.38;99396.66;4446629;32;33902;-63
2022/05/29 00:05:51;;;;;;;2.70;1.37;;;;;;;17.63;37.58;99397.31;4444442;32;33440;-61
2022/05/29 00:08:27;;;;;;;3.78;1.20;;;;;;;17.71;37.50;99391.87;4445366;32;34361;-61
2022/05/29 00:10:55;;;;;;;2.17;1.30;;;;;;;17.78;37.47;99392.09;4438852;32;33886;-64
2022/05/29 00:13:24;;;;;;;2.20;1.30;;;;;;;17.62;37.89;99384.78;4443877;32;33984;-63
2022/05/29 00:15:51;;;;;;;4.45;1.30;;;;;;;17.61;38.14;99383.94;4441379;32;34700;-63
2022/05/29 00:18:19;;;;;;;2.85;1.27;;;;;;;17.60;38.01;99389.53;4442451;32;32742;-60
2022/05/29 00:20:50;;;;;;;3.15;1.40;;;;;;;17.62;37.65;99382.06;4445493;32;33782;-63
2022/05/29 00:23:18;;;;;;;3.22;1.42;;;;;;;17.67;37.72;99379.72;4442708;32;32938;-61
2022/05/29 00:25:48;;;;;;;5.97;1.40;;;;;;;17.68;37.82;99371.41;4437356;32;32132;-63
2022/05/29 00:28:16;;;;;;;2.65;1.20;;;;;;;17.77;37.56;99376.87;4440525;32;33156;-61
2022/05/29 00:30:45;;;;;;;5.50;1.40;;;;;;;17.84;37.20;99380.59;4436594;32;33176;-63
2022/05/29 00:33:13;;;;;;;2.78;1.10;;;;;;;17.93;37.13;99371.44;4434019;32;34561;-63
2022/05/29 00:35:41;;;;;;;3.87;1.70;;;;;;;17.85;37.29;99366.88;4443038;32;33511;-61
2022/05/29 00:38:10;;;;;;;4.82;1.33;;;;;;;17.75;38.51;99368.87;4438796;32;34653;-62
2022/05/29 00:41:03;;;;;;;4.45;1.30;;;;;;;17.79;38.31;99364.88;4429015;32;33729;-64
2022/05/29 00:43:30;;;;;;;4.15;1.40;;;;;;;17.72;39.40;99371.06;4439298;32;32412;-61
2022/05/29 00:46:00;;;;;;;3.60;1.85;;;;;;;17.74;39.40;99350.09;4437722;32;33458;-62
2022/05/29 00:48:28;;;;;;;3.60;1.37;;;;;;;17.80;39.07;99358.44;4445947;32;34340;-62
2022/05/29 00:50:59;;;;;;;2.53;1.30;;;;;;;17.89;39.11;99356.56;4443164;32;32359;-64
2022/05/29 00:53:29;;;;;;;2.92;1.50;;;;;;;17.87;39.04;99351.31;4439302;32;34000;-61
2022/05/29 00:56:07;;;;;;;3.83;1.30;;;;;;;17.87;39.25;99348.59;4448262;32;34493;-64
2022/05/29 00:58:35;;;;;;;4.35;1.60;;;;;;;17.95;38.96;99349.62;4437832;32;33756;-61
2022/05/29 01:01:03;;;;;;;2.72;1.33;;;;;;;18.03;38.59;99338.75;4436991;32;35133;-63
2022/05/29 01:03:31;;;;;;;3.95;1.20;;;;;;;18.05;38.55;99337.56;4437484;32;35323;-63
2022/05/29 01:05:59;;;;;;;4.07;1.40;;;;;;;18.07;38.60;99338.25;4442701;32;32307;-61
2022/05/29 01:08:33;;;;;;;2.28;1.23;;;;;;;18.13;38.52;99340.25;4443726;32;33838;-63
2022/05/29 01:11:23;;;;;;;2.60;1.20;;;;;;;18.10;38.59;99335.19;4445746;32;35257;-63
2022/05/29 01:14:17;;;;;;;3.28;1.48;;;;;;;18.14;38.78;99335.72;4438622;32;33594;-62
2022/05/29 01:16:59;;;;;;;3.37;1.27;;;;;;;18.12;38.71;99333.16;4439568;32;34142;-64
2022/05/29 01:19:49;;;;;;;2.75;1.08;;;;;;;18.09;38.95;99332.66;4447055;32;33554;-65
2022/05/29 01:22:23;;;;;;;4.05;1.17;;;;;;;18.14;38.53;99330.28;4444927;32;32353;-64
2022/05/29 01:25:19;;;;;;;4.43;1.35;;;;;;;18.16;38.47;99336.34;4449152;32;32370;-63
2022/05/29 01:28:25;;;;;;;3.33;1.40;;;;;;;18.15;38.32;99329.25;4439913;32;32104;-64
2022/05/29 01:31:33;;;;;;;2.97;1.30;;;;;;;18.15;38.19;99332.81;4447410;32;32681;-62
2022/05/29 01:34:22;;;;;;;4.70;1.30;;;;;;;17.99;38.53;99340.13;4438935;32;33728;-62
2022/05/29 01:37:22;;;;;;;2.55;1.48;;;;;;;17.75;39.82;99341.81;4446781;32;33447;-64
2022/05/29 01:40:28;;;;;;;2.83;1.27;;;;;;;17.64;40.57;99334.03;4444305;32;33073;-65
2022/05/29 01:43:05;;;;;;;2.75;1.52;;;;;;;17.58;41.23;99345.53;4423332;32;34417;-64
2022/05/29 01:45:55;;;;;;;2.30;1.17;;;;;;;17.63;40.43;99337.78;4437054;32;32829;-63
2022/05/29 01:48:39;;;;;;;4.12;1.50;;;;;;;17.55;40.61;99343.19;4440466;32;34886;-65
2022/05/29 01:51:14;;;;;;;2.63;1.20;;;;;;;17.56;41.13;99344.84;4446087;32;33219;-65
2022/05/29 01:53:46;;;;;;;3.03;1.37;;;;;;;17.59;40.18;99342.69;4448895;32;33226;-64
2022/05/29 01:56:25;;;;;;;3.10;1.48;;;;;;;17.65;39.87;99344.69;4438535;32;34014;-63
2022/05/29 01:58:58;;;;;;;2.10;1.05;;;;;;;17.75;39.88;99349.09;4449615;32;32973;-62
2022/05/29 02:01:36;;;;;;;3.10;1.30;;;;;;;17.75;39.57;99341.81;4440277;32;33064;-63
2022/05/29 02:04:08;;;;;;;3.05;1.17;;;;;;;17.62;39.68;99338.78;4445329;32;34882;-63
2022/05/29 02:09:35;;;;;;;2.80;1.12;;;;;;;17.85;39.54;99336.28;4437627;32;34652;-63
2022/05/29 02:12:04;;;;;;;3.08;1.20;;;;;;;17.82;38.83;99325.78;4437507;32;33161;-62
2022/05/29 02:14:37;;;;;;;4.12;1.30;;;;;;;17.71;39.13;99324.22;4433270;32;33637;-65
2022/05/29 02:17:10;;;;;;;3.50;1.48;;;;;;;17.65;39.38;99320.34;4454474;32;35077;-62
2022/05/29 02:20:03;;;;;;;3.35;1.17;;;;;;;17.69;39.31;99319.00;4445472;32;33463;-63
2022/05/29 02:22:35;;;;;;;2.40;1.20;;;;;;;17.68;39.42;99319.16;4438096;32;33428;-65
2022/05/29 02:25:03;;;;;;;3.22;1.23;;;;;;;17.63;40.15;99318.84;4440119;32;34592;-65
2022/05/29 02:27:34;;;;;;;1.65;1.20;;;;;;;17.79;39.50;99315.31;4447186;32;32722;-62
2022/05/29 02:30:04;;;;;;;3.70;1.30;;;;;;;17.91;38.97;99313.91;4432735;32;34465;-61
2022/05/29 02:33:00;;;;;;;1.87;0.95;;;;;;;17.83;40.12;99306.66;4447650;32;32279;-63
2022/05/29 02:35:39;;;;;;;3.60;1.50;;;;;;;17.95;39.35;99312.56;4444393;32;34559;-64
2022/05/29 02:38:31;;;;;;;3.75;1.55;;;;;;;17.96;39.62;99313.41;4448958;32;33881;-63
2022/05/29 02:41:03;;;;;;;3.65;1.65;;;;;;;17.94;38.92;99313.56;4449121;32;33455;-62
2022/05/29 02:43:39;;;;;;;3.12;1.12;;;;;;;17.84;39.80;99302.91;4441108;32;34125;-62
2022/05/29 02:46:18;;;;;;;3.15;1.33;;;;;;;17.98;39.53;99308.63;4441235;32;32163;-65
2022/05/29 02:48:59;;;;;;;2.92;1.10;;;;;;;18.07;38.79;99313.03;4445131;32;34078;-62
2022/05/29 02:51:58;;;;;;;3.95;1.40;;;;;;;17.98;38.35;99305.94;4443673;32;34060;-62
2022/05/29 02:54:28;;;;;;;3.75;1.48;;;;;;;17.92;38.45;99293.94;4433952;32;33558;-63
2022/05/29 02:56:58;;;;;;;3.97;1.30;;;;;;;17.91;38.54;99295.81;4444041;32;34977;-65
2022/05/29 02:59:31;;;;;;;3.37;1.23;;;;;;;17.91;38.68;99298.53;4445063;32;34832;-63
2022/05/29 03:02:12;;;;;;;4.47;1.50;;;;;;;17.92;38.71;99297.50;4435169;32;35757;-64
2022/05/29 03:04:51;;;;;;;4.20;1.20;;;;;;;17.86;39.07;99306.31;4449246;32;34465;-64
2022/05/29 03:07:33;;;;;;;2.95;1.27;;;;;;;17.83;39.32;99305.81;4439866;32;33542;-63
2022/05/29 03:10:15;;;;;;;3.20;1.40;;;;;;;17.79;39.23;99294.47;4448189;32;35276;-63
2022/05/29 03:12:54;;;;;;;2.72;1.17;;;;;;;17.73;39.16;99291.59;4450577;32;34686;-64
2022/05/29 03:15:28;;;;;;;4.28;1.40;;;;;;;17.60;39.57;99290.25;4443527;32;33101;-63
2022/05/29 03:18:16;;;;;;;4.18;1.60;;;;;;;17.56;39.82;99280.78;4448480;32;33381;-63
2022/05/29 03:20:53;;;;;;;2.60;1.20;;;;;;;17.50;40.30;99280.62;4448432;32;32169;-65
2022/05/29 03:23:48;;;;;;;3.45;1.55;;;;;;;17.41;40.13;99277.06;4442131;32;33850;-63
2022/05/29 03:26:43;;;;;;;5.40;1.60;;;;;;;17.42;39.88;99276.87;4448665;32;32514;-63
2022/05/29 03:29:14;;;;;;;3.30;1.50;;;;;;;17.26;39.94;99276.06;4441661;32;32609;-63
2022/05/29 03:31:42;;;;;;;2.80;1.30;;;;;;;17.05;40.41;99265.75;4450318;32;32849;-61
2022/05/29 03:34:09;;;;;;;4.68;1.85;;;;;;;17.21;39.98;99272.00;4440584;32;33964;-64
2022/05/29 03:36:44;;;;;;;3.78;1.75;;;;;;;17.17;39.62;99272.50;4449092;32;32985;-63
2022/05/29 03:39:12;;;;;;;4.65;1.30;;;;;;;17.23;39.48;99261.00;4449532;32;33552;-63
2022/05/29 03:41:45;;;;;;;4.43;1.30;;;;;;;17.32;39.25;99260.00;4451518;32;34910;-65
2022/05/29 03:44:15;;;;;;;2.53;1.27;;;;;;;17.27;39.84;99267.78;4448408;32;33944;-64
2022/05/29 03:46:44;;;;;;;2.50;1.37;;;;;;;17.26;40.02;99263.38;4437026;32;34804;-65
2022/05/29 03:49:13;;;;;;;3.78;1.40;;;;;;;17.14;40.86;99260.19;4450796;32;34727;-62
2022/05/29 03:51:42;;;;;;;3.03;1.20;;;;;;;17.16;41.42;99266.25;4449570;32;34995;-65
2022/05/29 03:54:10;;;;;;;3.33;1.17;;;;;;;17.28;40.93;99271.34;4450353;32;32708;-62
2022/05/29 03:56:38;;;;;;;2.00;1.00;;;;;;;17.18;40.17;99272.34;4450967;32;33549;-62
2022/05/29 03:59:06;;;;;;;2.50;1.00;;;;;;;17.19;40.23;99279.44;4448434;32;34854;-62
2022/05/29 04:01:34;;;;;;;1.73;1.10;;;;;;;17.31;39.25;99276.41;4439471;32;33683;-62
2022/05/29 04:04:03;;;;;;;2.45;0.98;;;;;;;17.44;37.75;99280.28;4436773;32;34910;-65
2022/05/29 04:06:34;;;;;;;4.18;1.20;;;;;;;17.55;37.10;99280.94;4437283;32;33434;-62
2022/05/29 04:12:07;;;;;;;2.42;1.02;;;;;;;17.63;37.52;99270.97;4445884;32;35156;-64
2022/05/29 04:14:38;;;;;;;5.43;0.95;;;;;;;17.70;38.45;99276.53;4442008;32;33801;-61
2022/05/29 04:17:07;;;;;;;2.17;1.10;;;;;;;18.01;36.66;99273.97;4444636;32;33290;-64
2022/05/29 04:19:35;;;;;;;3.58;1.10;;;;;;;17.88;36.00;99262.81;4446807;32;34820;-62
2022/05/29 04:22:12;;;;;;;3.90;1.12;;;;;;;18.09;35.59;99267.66;4447224;32;35003;-64
2022/05/29 04:24:40;;;;;;;2.30;1.20;;;;;;;18.20;34.77;99261.00;4450919;32;35246;-62
2022/05/29 04:27:12;;;;;;;3.03;1.27;;;;;;;18.24;34.94;99267.78;4443640;32;34461;-64
2022/05/29 04:29:40;;;;;;;4.03;1.37;;;;;;;18.31;35.41;99269.59;4453134;32;32453;-65
2022/05/29 04:34:55;;;;;;;2.80;1.20;;;;;;;18.41;34.20;99265.84;4452437;32;32705;-66
2022/05/29 04:37:24;;;;;;;3.58;1.00;;;;;;;18.55;34.55;99268.63;4442628;32;32562;-63
2022/05/29 04:39:51;;;;;;;3.15;1.27;;;;;;;18.66;33.61;99267.41;4447303;32;33797;-65
2022/05/29 04:42:19;;;;;;;2.35;0.90;;;;;;;18.69;33.17;99263.50;4445284;32;34123;-64
2022/05/29 04:44:47;;;;;;;1.37;0.93;;;;;;;18.68;33.51;99264.50;4448569;32;33534;-64
2022/05/29 04:47:14;;;;;;;2.87;1.27;;;;;;;18.75;34.11;99263.66;4444951;32;33986;-64
2022/05/29 04:49:42;;;;;;;3.58;1.20;;;;;;;18.53;36.98;99267.16;4449677;32;34611;-66
2022/05/29 04:52:10;;;;;;;2.00;1.20;;;;;;;18.74;36.72;99270.09;4442357;32;32405;-65
2022/05/29 04:54:38;;;;;;;1.87;1.08;;;;;;;18.88;37.21;99275.78;4441357;32;32737;-62
2022/05/29 04:57:07;;;;;;;2.97;1.23;;;;;;;18.92;37.99;99267.09;4441656;32;34156;-66
2022/05/29 04:59:35;;;;;;;5.47;2.80;;;;;;;18.93;37.90;99267.94;4443470;32;34762;-64
2022/05/29 05:02:03;;;;;;;5.22;2.20;;;;;;;18.91;36.87;99267.25;4451168;32;33955;-65
2022/05/29 05:04:31;;;;;;;5.00;1.87;;;;;;;18.80;35.34;99265.81;4446851;32;34668;-63
2022/05/29 05:06:59;;;;;;;3.95;1.65;;;;;;;18.67;36.84;99270.97;4451411;32;31908;-63
2022/05/29 05:09:28;;;;;;;2.85;1.27;;;;;;;18.78;36.67;99276.00;4453216;32;32999;-65
2022/05/29 05:11:56;;;;;;;2.50;1.08;;;;;;;18.72;35.30;99276.69;4446230;32;33704;-66
2022/05/29 05:14:25;;;;;;;5.28;1.60;;;;;;;18.82;35.50;99275.47;4440967;32;33281;-63
2022/05/29 05:16:53;;;;;;;4.40;1.50;;;;;;;18.90;35.23;99273.72;4440647;32;33110;-64
2022/05/29 05:19:21;;;;;;;5.00;1.50;;;;;;;18.81;35.64;99284.63;4438922;32;34163;-64
2022/05/29 05:21:49;;;;;;;3.87;1.55;;;;;;;18.77;35.63;99277.87;4442431;32;32877;-62
2022/05/29 05:24:17;;;;;;;6.43;1.67;;;;;;;18.74;36.13;99280.09;4442855;32;33846;-63
2022/05/29 05:26:45;;;;;;;3.12;1.67;;;;;;;18.07;38.63;99281.41;4447873;32;33622;-64
2022/05/29 05:29:14;;;;;;;4.30;1.58;;;;;;;18.09;38.22;99278.50;4441800;32;33818;-64
2022/05/29 05:31:41;;;;;;;5.47;1.85;;;;;;;18.36;37.96;99275.34;4442289;32;34124;-65
2022/05/29 05:34:09;;;;;;;6.18;2.17;;;;;;;18.44;38.90;99271.75;4449985;32;33582;-63
2022/05/29 05:36:38;;;;;;;4.00;1.85;;;;;;;18.61;38.05;99270.63;4441358;32;31918;-63
2022/05/29 05:39:05;;;;;;;5.15;1.70;;;;;;;18.52;38.00;99279.84;4441851;32;33632;-62
2022/05/29 05:41:33;;;;;;;5.87;2.05;;;;;;;18.35;38.67;99281.78;4439036;32;32535;-61
2022/05/29 05:44:01;;;;;;;4.00;1.90;;;;;;;18.23;38.53;99280.47;4452243;32;32720;-63
2022/05/29 05:46:28;;;;;;;3.60;1.80;;;;;;;18.49;38.67;99277.50;4444237;32;31892;-65
2022/05/29 05:48:57;;;;;;;5.35;1.80;;;;;;;18.51;38.30;99266.47;4451256;32;32518;-62
2022/05/29 05:51:25;;;;;;;6.68;1.77;;;;;;;18.43;38.50;99274.66;4451118;32;34345;-61
2022/05/29 05:53:53;;;;;;;3.75;1.62;;;;;;;18.16;37.73;99274.91;4446614;32;33367;-61
2022/05/29 05:56:20;;;;;;;3.03;1.55;;;;;;;18.22;37.49;99267.09;4440474;32;31761;-62
2022/05/29 05:58:48;;;;;;;2.75;1.42;;;;;;;18.11;37.54;99265.62;4432284;32;31877;-63
2022/05/29 06:01:17;;;;;;;2.78;1.15;;;;;;;18.51;35.83;99253.75;4447225;32;35223;-61
2022/05/29 06:03:46;;;;;;;3.83;1.80;;;;;;;18.51;35.45;99259.19;4438239;32;32574;-64
2022/05/29 06:06:14;;;;;;;3.10;1.42;;;;;;;18.83;35.04;99260.88;4436939;32;33328;-65
2022/05/29 06:08:41;;;;;;;2.50;1.00;;;;;;;18.78;35.02;99268.72;4439354;32;34643;-62
2022/05/29 06:11:09;;;;;;;2.37;1.10;;;;;;;19.16;34.95;99262.50;4437090;32;33359;-62
2022/05/29 06:13:36;;;;;;;4.53;1.30;;;;;;;19.09;34.49;99256.97;4438003;32;33950;-61
2022/05/29 06:16:05;;;;;;;6.30;1.50;;;;;;;19.27;33.57;99262.94;4439169;32;32472;-64
2022/05/29 06:18:32;;;;;;;4.12;1.20;;;;;;;19.39;33.36;99257.06;4438656;32;33557;-62
2022/05/29 06:21:04;;;;;;;3.58;1.40;;;;;;;19.61;32.96;99256.16;4438149;32;33738;-61
2022/05/29 06:23:34;;;;;;;5.00;1.20;;;;;;;19.69;33.93;99267.00;4440504;32;33868;-64
2022/05/29 06:26:08;;;;;;;2.53;1.27;;;;;;;19.58;34.55;99256.53;4439841;32;33526;-62
2022/05/29 06:28:36;;;;;;;4.30;1.27;;;;;;;19.73;34.62;99262.03;4437740;32;33736;-64
2022/05/29 06:31:05;;;;;;;2.75;1.10;;;;;;;19.65;33.82;99246.69;4446597;32;34887;-63
2022/05/29 06:33:35;;;;;;;2.47;1.20;;;;;;;19.61;34.18;99258.03;4446180;32;34118;-63
2022/05/29 06:36:14;;;;;;;3.47;1.25;;;;;;;19.83;33.04;99259.03;4438924;32;33110;-62
2022/05/29 06:38:42;;;;;;;2.72;0.90;;;;;;;19.75;32.81;99263.53;4439938;32;35098;-63
2022/05/29 06:41:12;;;;;;;3.67;1.10;;;;;;;19.29;31.40;99266.31;4438526;32;32605;-62
2022/05/29 06:43:41;;;;;;;3.30;1.40;;;;;;;18.93;32.50;99265.22;4440107;32;33750;-62
2022/05/29 06:46:09;;;;;;;2.67;1.20;;;;;;;19.47;31.50;99252.41;4439208;32;33338;-62
2022/05/29 06:48:38;;;;;;;5.03;1.25;;;;;;;19.13;32.00;99261.00;4438837;32;32519;-63
2022/05/29 06:51:08;;;;;;;2.75;1.10;;;;;;;19.27;31.70;99254.78;4438780;32;33827;-62
2022/05/29 06:53:36;;;;;;;2.45;1.20;;;;;;;18.62;33.56;99266.09;4436886;32;33822;-62
2022/05/29 06:56:05;;;;;;;3.62;1.40;;;;;;;19.20;31.96;99256.56;4439831;32;34531;-62
2022/05/29 06:58:33;;;;;;;3.47;1.67;;;;;;;19.16;33.32;99255.22;4438828;32;34144;-64
2022/05/29 07:07:01;;;;;;;3.50;1.27;;;;;;;19.41;32.13;99260.44;4439571;32;34564;-63
2022/05/29 07:09:34;;;;;;;5.30;1.50;;;;;;;19.61;31.99;99255.34;4437962;32;31688;-65
2022/05/29 07:12:14;;;;;;;4.05;1.40;;;;;;;19.23;32.45;99248.06;4438879;32;34897;-63
2022/05/29 07:14:45;;;;;;;3.25;1.37;;;;;;;18.82;32.87;99245.66;4441043;32;32600;-62
2022/05/29 07:17:12;;;;;;;4.05;1.25;;;;;;;18.88;32.79;99254.09;4437594;32;32060;-65
2022/05/29 07:19:44;;;;;;;2.97;1.20;;;;;;;19.03;31.22;99246.84;4448600;32;33718;-62
2022/05/29 07:22:12;;;;;;;3.95;1.42;;;;;;;18.60;31.97;99249.16;4449081;32;34890;-62
2022/05/29 07:24:40;;;;;;;3.30;1.17;;;;;;;18.84;32.63;99256.28;4449242;32;33924;-63
2022/05/29 07:27:08;;;;;;;4.85;1.30;;;;;;;19.14;31.71;99257.28;4450096;32;31762;-61
2022/05/29 07:29:36;;;;;;;4.25;1.20;;;;;;;19.03;31.64;99250.41;4435281;32;34593;-61
2022/05/29 07:32:04;;;;;;;3.40;1.73;;;;;;;18.53;32.29;99242.75;4434790;32;108821;-64
2022/05/29 07:34:32;;;;;;;3.08;1.10;;;;;;;18.84;32.42;99246.31;4437845;32;33128;-64
2022/05/29 07:37:09;;;;;;;3.40;1.10;;;;;;;18.92;32.17;99245.41;4437138;32;33204;-63
2022/05/29 07:39:40;;;;;;;4.00;1.35;;;;;;;19.08;32.46;99241.72;4437614;32;32721;-63
2022/05/29 07:44:56;;;;;;;2.47;1.02;;;;;;;18.99;31.70;99238.22;4438706;32;33655;-62
2022/05/29 07:47:28;;;;;;;3.60;1.15;;;;;;;18.39;31.61;99234.38;4439347;32;32104;-62
2022/05/29 07:49:57;;;;;;;3.97;1.35;;;;;;;18.57;31.28;99235.94;4438910;32;34727;-62
2022/05/29 07:52:27;;;;;;;2.80;1.10;;;;;;;18.67;31.49;99228.44;4437130;32;33595;-65
2022/05/29 07:54:54;;;;;;;2.53;0.93;;;;;;;18.72;32.11;99234.19;4437571;32;32707;-61
2022/05/29 07:57:22;;;;;;;3.92;1.17;;;;;;;19.05;31.68;99234.78;4438442;32;33458;-62
2022/05/29 07:59:50;;;;;;;3.67;1.33;;;;;;;19.00;31.49;99230.94;4438919;32;34650;-61
2022/05/29 08:02:17;;;;;;;2.25;1.15;;;;;;;18.85;31.30;99229.03;4434946;32;34070;-64
2022/05/29 08:04:45;;;;;;;5.37;1.35;;;;;;;18.80;31.72;99223.28;4439683;32;33948;-63
2022/05/29 08:07:15;;;;;;;5.43;1.20;;;;;;;18.87;32.04;99222.56;4438028;32;33139;-63
2022/05/29 08:09:43;;;;;;;2.37;1.05;;;;;;;19.01;31.87;99232.66;4437310;32;32094;-62
2022/05/29 08:12:12;;;;;;;2.33;1.17;;;;;;;18.96;32.13;99227.75;4435665;32;35333;-62
2022/05/29 08:14:40;;;;;;;2.83;1.50;;;;;;;19.35;32.32;99215.87;4438396;32;32057;-62
2022/05/29 08:17:09;;;;;;;2.35;1.20;;;;;;;19.26;31.71;99222.41;4436882;32;33478;-62
2022/05/29 08:19:38;;;;;;;2.42;0.85;;;;;;;19.60;30.21;99213.78;4440050;32;33562;-65
2022/05/29 08:22:06;;;;;;;3.10;1.20;;;;;;;19.53;30.56;99213.69;4433380;32;34429;-65
2022/05/29 08:30:37;;;;;;;7.70;1.35;;;;;;;19.48;32.93;99210.66;4435037;32;33224;-61
2022/05/29 08:33:16;;;;;;;;;;;;;;;19.20;30.55;99212.31;4437434;32;34146;-65
2022/05/29 08:35:51;;;;;;;2.78;1.10;;;;;;;19.65;30.46;99205.97;4439083;32;34311;-64
2022/05/29 08:38:19;;;;;;;2.25;1.12;;;;;;;18.90;32.22;99205.94;4449418;32;34464;-63
2022/05/29 08:40:50;;;;;;;2.12;1.30;;;;;;;19.09;31.49;99209.00;4437791;32;33513;-62
2022/05/29 08:43:32;;;;;;;2.97;1.00;;;;;;;18.88;32.67;99216.13;4428823;32;34991;-62
2022/05/29 08:46:05;;;;;;;5.35;1.45;;;;;;;19.33;31.54;99198.97;4436153;32;33751;-61
2022/05/29 08:48:33;;;;;;;3.12;1.62;;;;;;;19.20;31.08;99198.75;4436567;32;35158;-63
2022/05/29 08:51:13;;;;;;;4.10;1.80;;;;;;;19.31;32.14;99203.72;4435062;32;33926;-65
2022/05/29 08:54:13;;;;;;;3.85;1.20;;;;;;;19.07;31.83;99200.22;4437190;32;33269;-64
2022/05/29 08:56:48;;;;;;;3.15;1.20;;;;;;;19.36;32.73;99198.59;4437902;32;34163;-62
2022/05/29 08:59:39;;;;;;;3.72;1.50;;;;;;;19.23;32.43;99199.22;4435161;32;33393;-62
2022/05/29 09:02:28;;;;;;;2.40;1.00;;;;;;;19.80;31.83;99196.97;4438980;32;33770;-62
2022/05/29 09:05:04;;;;;;;3.08;1.37;;;;;;;19.89;31.88;99204.81;4434049;32;34105;-62
2022/05/29 09:07:35;;;;;;;4.12;1.20;;;;;;;19.79;30.64;99190.69;4449132;32;33954;-64
2022/05/29 09:10:33;;;;;;;3.10;1.20;;;;;;;19.76;30.92;99193.78;4436927;32;34274;-62
2022/05/29 09:13:03;;;;;;;3.05;1.37;;;;;;;19.30;30.45;99188.47;4434138;32;33498;-65
2022/05/29 09:15:39;;;;;;;3.55;1.10;;;;;;;19.06;30.70;99181.38;4441611;32;35141;-63
2022/05/29 09:18:17;;;;;;;2.83;1.02;;;;;;;19.34;30.93;99197.09;4442516;32;33649;-61
2022/05/29 09:20:48;;;;;;;3.25;1.00;;;;;;;19.57;30.60;99191.59;4441684;32;33079;-64
2022/05/29 09:23:28;;;;;;;4.30;1.15;;;;;;;19.44;29.75;99193.06;4442415;32;33906;-62
2022/05/29 09:25:56;;;;;;;2.05;1.17;;;;;;;19.58;29.13;99188.69;4443613;32;32570;-62
2022/05/29 09:28:37;;;;;;;2.65;1.37;;;;;;;19.24;29.75;99181.06;4442456;32;32652;-61
2022/05/29 09:31:16;;;;;;;2.87;1.25;;;;;;;19.46;30.25;99180.16;4439433;32;34531;-62
2022/05/29 09:33:45;;;;;;;2.60;1.08;;;;;;;19.45;30.69;99183.06;4442471;32;33715;-62
2022/05/29 09:36:42;;;;;;;3.47;1.40;;;;;;;19.30;30.68;99180.34;4441532;32;32755;-61
2022/05/29 09:39:37;;;;;;;4.50;1.48;;;;;;;19.33;30.36;99179.13;4451184;32;33646;-63
2022/05/29 09:42:09;;;;;;;4.45;1.30;;;;;;;19.55;30.70;99181.78;4432124;32;32142;-61
2022/05/29 09:44:37;;;;;;;3.78;1.10;;;;;;;19.91;29.70;99175.63;4433236;32;34134;-65
2022/05/29 09:50:11;;;;;;;2.90;1.20;;;;;;;19.92;28.76;99168.31;4439799;32;34024;-63
2022/05/29 09:52:41;;;;;;;5.43;1.50;;;;;;;20.08;29.56;99173.53;4441381;32;33496;-63
2022/05/29 09:55:23;;;;;;;2.72;1.20;;;;;;;19.27;30.97;99167.97;4443322;32;32374;-62
2022/05/29 09:58:02;;;;;;;3.70;1.23;;;;;;;19.69;30.71;99163.81;4442100;32;34778;-62
2022/05/29 10:00:39;;;;;;;1.90;1.10;;;;;;;19.73;29.57;99165.13;4441554;32;33828;-60
2022/05/29 10:03:10;;;;;;;5.70;1.45;;;;;;;20.29;28.56;99161.88;4438308;32;33160;-63
2022/05/29 10:05:39;;;;;;;5.05;1.42;;;;;;;19.82;28.71;99165.88;4427788;32;33536;-63
2022/05/29 10:08:19;;;;;;;2.53;1.20;;;;;;;19.73;29.59;99167.84;4442873;32;35085;-63
2022/05/29 10:10:47;;;;;;;2.47;1.10;;;;;;;19.87;29.29;99165.31;4433745;32;32471;-62
2022/05/29 10:13:37;;;;;;;3.40;1.08;;;;;;;20.20;29.72;99157.59;4440684;32;34604;-64
2022/05/29 10:16:07;;;;;;;3.37;1.05;;;;;;;20.30;28.86;99160.00;4439937;32;33582;-62
2022/05/29 10:18:36;;;;;;;3.25;1.33;;;;;;;20.50;28.68;99158.34;4433813;32;33560;-64
2022/05/29 10:21:14;;;;;;;2.80;1.20;;;;;;;20.53;28.29;99149.84;4437400;32;34989;-62
2022/05/29 10:23:48;;;;;;;3.33;1.23;;;;;;;19.97;29.26;99158.56;4438875;32;33099;-64
2022/05/29 10:26:22;;;;;;;3.80;1.52;;;;;;;20.35;29.80;99155.69;4437621;32;33823;-61
2022/05/29 10:28:50;;;;;;;4.90;1.60;;;;;;;20.58;26.96;99146.56;4438317;32;34064;-61
2022/05/29 10:31:36;;;;;;;2.70;1.27;;;;;;;20.35;29.25;99152.97;4435155;32;33417;-65
2022/05/29 10:34:09;;;;;;;5.22;1.08;;;;;;;20.15;28.48;99146.44;4435974;32;32649;-64
2022/05/29 10:36:38;;;;;;;1.85;1.00;;;;;;;20.07;29.26;99147.41;4435873;32;35722;-64
2022/05/29 10:39:24;;;;;;;3.97;1.30;;;;;;;19.72;28.69;99141.72;4428898;32;33641;-61
2022/05/29 10:41:52;;;;;;;2.30;1.17;;;;;;;19.70;30.06;99143.78;4434309;32;32411;-64
2022/05/29 10:44:44;;;;;;;2.67;1.33;;;;;;;19.75;30.28;99145.94;4439363;32;32200;-62
2022/05/29 10:47:21;;;;;;;3.00;1.15;;;;;;;20.06;29.95;99142.97;4440165;32;33862;-62
2022/05/29 10:49:51;;;;;;;1.90;1.10;;;;;;;20.20;30.16;99144.00;4439949;32;35123;-63
2022/05/29 10:52:49;;;;;;;2.65;1.40;;;;;;;19.94;30.65;99133.66;4437515;32;33684;-64
2022/05/29 10:55:36;;;;;;;3.08;1.20;;;;;;;19.82;30.20;99137.91;4430377;32;32084;-62
2022/05/29 10:58:25;;;;;;;3.20;1.20;;;;;;;19.70;29.92;99132.94;4438537;32;33918;-61
2022/05/29 11:03:17;;;;;;;3.92;1.50;;;;;;;19.61;29.41;99139.44;4436951;32;33945;-61
2022/05/29 11:04:39;;;;;;;2.58;1.10;;;;;;;19.70;29.55;99132.09;4437669;32;34961;-62
2022/05/29 11:07:13;;;;;;;3.15;1.15;;;;;;;19.74;30.27;99134.25;4397504;32;33465;-63
2022/05/29 11:09:59;;;;;;;2.95;1.10;;;;;;;19.92;30.92;99131.13;4396915;32;33793;-62
2022/05/29 11:13:09;;;;;;;3.20;1.27;;;;;;;20.19;30.01;99134.16;4423363;32;32905;-61
2022/05/29 11:15:49;;;;;;;3.83;1.30;;;;;;;20.01;31.21;99140.84;4437531;32;32464;-64
2022/05/29 11:18:20;;;;;;;3.10;1.42;;;;;;;19.95;30.68;99130.75;4435611;32;34498;-64
2022/05/29 11:21:20;;;;;;;2.47;1.20;;;;;;;19.96;30.44;99135.13;4440559;32;32761;-64
2022/05/29 11:24:09;;;;;;;2.65;1.20;;;;;;;19.97;30.70;99127.84;4437464;32;33272;-62
2022/05/29 11:26:58;;;;;;;2.33;1.20;;;;;;;19.59;31.63;99119.81;4435991;32;33577;-61
2022/05/29 11:29:58;;;;;;;4.40;1.45;;;;;;;20.04;31.48;99115.19;4439133;32;33464;-64
2022/05/29 11:33:05;;;;;;;2.45;1.02;;;;;;;20.25;30.78;99106.22;4413162;32;35023;-64
2022/05/29 11:35:52;;;;;;;4.53;1.40;;;;;;;20.01;31.42;99113.69;4437708;32;35212;-64
2022/05/29 11:38:39;;;;;;;3.65;1.40;;;;;;;20.01;32.77;99112.84;4434638;32;33809;-61
2022/05/29 11:41:12;;;;;;;2.45;1.27;;;;;;;20.03;30.87;99113.47;4439343;32;33132;-63
2022/05/29 11:43:55;;;;;;;8.52;1.42;;;;;;;19.86;31.14;99109.31;4439506;32;32937;-64
2022/05/29 11:52:22;;;;;;;3.40;1.25;;;;;;;19.71;30.65;99106.63;4434312;32;33422;-61
2022/05/29 11:55:03;;;;;;;2.00;1.20;;;;;;;20.15;31.64;99095.66;4436658;32;33702;-62
2022/05/29 11:57:33;;;;;;;3.33;1.37;;;;;;;20.12;31.54;99085.19;4438287;32;33947;-62
2022/05/29 12:00:09;;;;;;;2.97;1.40;;;;;;;20.24;31.35;99097.22;4434978;32;32474;-63
2022/05/29 12:02:46;;;;;;;2.25;1.20;;;;;;;19.64;32.52;99095.66;4434155;32;34660;-62
2022/05/29 12:05:29;;;;;;;1.95;1.20;;;;;;;19.89;31.05;99093.47;4436638;32;33837;-61
2022/05/29 12:08:08;;;;;;;3.72;1.35;;;;;;;20.08;30.11;99086.59;4431521;32;33647;-64
2022/05/29 12:11:23;;;;;;;4.12;1.35;;;;;;;20.21;30.10;99084.03;4439600;32;34172;-62
2022/05/29 12:14:01;;;;;;;2.65;1.20;;;;;;;20.36;30.31;99088.59;4437458;32;34758;-62
2022/05/29 12:16:31;;;;;;;2.42;1.20;;;;;;;20.48;30.82;99081.56;4437427;32;32085;-64
2022/05/29 12:19:01;;;;;;;4.05;1.20;;;;;;;20.49;30.30;99075.12;4436105;32;32574;-62
2022/05/29 12:21:38;;;;;;;2.67;1.30;;;;;;;20.46;29.15;99089.09;4439349;32;32788;-61
2022/05/29 12:24:20;;;;;;;3.30;1.50;;;;;;;20.21;29.13;99078.59;4449549;32;34557;-63
2022/05/29 12:26:57;;;;;;;3.95;1.30;;;;;;;19.80;30.21;99072.06;4435424;32;32013;-62
2022/05/29 12:29:54;;;;;;;3.40;1.33;;;;;;;20.32;30.37;99088.13;4435718;32;33751;-62
2022/05/29 12:32:30;;;;;;;2.95;1.10;;;;;;;20.59;29.55;99082.97;4431227;32;33718;-62
2022/05/29 12:35:20;;;;;;;4.03;1.30;;;;;;;20.59;29.92;99085.69;4435871;32;33221;-62
2022/05/29 12:37:47;;;;;;;;;;;;;;;20.49;30.47;99086.00;4434828;32;32137;-62
2022/05/29 12:41:03;;;;;;;3.60;1.30;;;;;;;20.79;29.52;99086.69;4440219;32;34140;-63
2022/05/29 12:43:50;;;;;;;1.40;0.95;;;;;;;20.30;29.74;99081.19;4411529;32;32725;-63